Time;durP1;ratioP1;P1;durP2;ratioP2;P2;SDS_P1;SDS_P2;PMS_P1;PMS_P2;Temp;Humidity;BMP_temperature;BMP_pressure;BME280_temperature;BME280_humidity;BME280_pressure;Samples;Min_cycle;Max_cycle;Signal;HPM_P1;HPM_P2
2022/12/28 00:01:27;;;;;;;6.67;2.50;;;1.70;1.00;;;;;;8431004;28;20191;-68
2022/12/28 00:05:28;;;;;;;6.30;2.27;;;1.70;1.00;;;;;;8429296;28;20184;-69
2022/12/28 00:09:29;;;;;;;5.70;2.93;;;1.60;1.00;;;;;;8431871;28;20184;-69
2022/12/28 00:13:32;;;;;;;5.17;2.83;;;1.60;1.00;;;;;;8424549;27;20279;-68
2022/12/28 00:17:32;;;;;;;5.33;2.27;;;1.60;1.00;;;;;;8424365;28;20215;-69
2022/12/28 00:21:33;;;;;;;3.83;1.87;;;1.60;1.00;;;;;;8428600;27;20196;-68
2022/12/28 00:25:35;;;;;;;2.97;1.87;;;1.50;1.00;;;;;;8430010;28;20279;-68
2022/12/28 00:29:36;;;;;;;4.17;1.93;;;1.50;1.00;;;;;;8430739;27;20185;-68
2022/12/28 00:33:37;;;;;;;2.70;2.00;;;1.60;1.00;;;;;;8430203;27;20295;-68
2022/12/28 00:37:37;;;;;;;4.07;2.00;;;1.60;1.00;;;;;;8428687;28;20212;-69
2022/12/28 00:41:38;;;;;;;3.17;1.27;;;1.60;1.00;;;;;;8444720;27;20199;-69
2022/12/28 00:45:42;;;;;;;5.53;2.10;;;1.60;1.00;;;;;;8426574;28;20229;-68
2022/12/28 00:49:43;;;;;;;2.57;1.90;;;1.60;1.00;;;;;;8429508;27;20183;-69
2022/12/28 00:53:44;;;;;;;4.70;1.80;;;1.50;1.00;;;;;;8431039;27;20192;-69
2022/12/28 00:57:45;;;;;;;4.60;1.50;;;1.50;1.00;;;;;;8427295;28;20484;-69
2022/12/28 01:01:45;;;;;;;4.70;2.10;;;1.50;1.00;;;;;;8422572;28;20240;-69
2022/12/28 01:05:46;;;;;;;2.03;1.70;;;1.50;1.40;;;;;;8424724;28;20274;-68
2022/12/28 01:09:47;;;;;;;4.10;1.77;;;1.40;1.00;;;;;;8428611;27;20188;-69
2022/12/28 01:13:49;;;;;;;2.77;1.87;;;1.30;5.00;;;;;;8433576;27;20187;-68
2022/12/28 01:17:50;;;;;;;2.93;1.80;;;1.20;88.90;;;;;;8424659;28;20208;-68
2022/12/28 01:21:51;;;;;;;2.60;1.93;;;1.10;99.90;;;;;;8426447;27;20464;-69
2022/12/28 01:25:52;;;;;;;4.13;1.63;;;1.00;99.90;;;;;;8441178;27;20392;-69
2022/12/28 01:29:53;;;;;;;4.00;1.80;;;0.90;99.90;;;;;;8431133;27;20187;-68
2022/12/28 01:33:54;;;;;;;3.83;2.30;;;0.90;1.00;;;;;;8427306;28;20217;-69
2022/12/28 01:37:56;;;;;;;5.53;2.63;;;0.80;1.00;;;;;;8428584;28;20211;-69
2022/12/28 01:41:57;;;;;;;5.00;2.40;;;0.80;2.90;;;;;;8427933;28;20180;-69
2022/12/28 01:45:58;;;;;;;3.90;2.23;;;0.90;99.90;;;;;;8425327;28;20192;-69
2022/12/28 01:50:04;;;;;;;3.47;2.23;;;1.00;99.90;;;;;;8427686;27;20204;-69
2022/12/28 01:54:05;;;;;;;3.97;2.57;;;1.20;99.90;;;;;;8442552;27;20251;-69
2022/12/28 01:58:11;;;;;;;3.87;2.03;;;1.30;1.00;;;;;;8431418;27;20247;-69
2022/12/28 02:02:13;;;;;;;4.33;2.67;;;1.40;99.90;;;;;;8427611;27;20214;-69
2022/12/28 02:06:14;;;;;;;6.63;2.37;;;1.50;99.90;;;;;;8415657;27;21165;-69
2022/12/28 02:10:17;;;;;;;3.17;2.03;;;1.60;99.90;;;;;;8430925;27;20191;-69
2022/12/28 02:14:19;;;;;;;3.57;2.30;;;1.70;6.70;;;;;;8426863;28;20208;-69
2022/12/28 02:18:22;;;;;;;3.27;2.07;;;1.80;1.00;;;;;;8428202;28;20261;-69
2022/12/28 02:22:42;;;;;;;4.17;2.23;;;1.90;1.00;;;;;;8426276;27;20180;-69
2022/12/28 02:27:00;;;;;;;2.83;1.90;;;2.10;1.00;;;;;;8421419;28;20625;-69
2022/12/28 02:31:30;;;;;;;3.10;1.83;;;2.20;99.90;;;;;;8440949;27;20184;-68
2022/12/28 02:35:54;;;;;;;2.90;2.07;;;2.30;99.90;;;;;;8430651;27;20273;-68
2022/12/28 02:40:26;;;;;;;5.03;2.13;;;2.50;99.90;;;;;;8424797;28;20198;-69
2022/12/28 02:53:33;;;;;;;4.30;2.17;;;2.60;99.90;;;;;;8426371;28;20243;-67
2022/12/28 02:57:55;;;;;;;3.17;2.20;;;2.70;99.90;;;;;;8427136;28;20211;-67
2022/12/28 03:02:43;;;;;;;2.87;1.80;;;2.70;99.90;;;;;;8424572;28;20176;-69
2022/12/28 03:11:52;;;;;;;5.93;2.30;;;2.80;99.90;;;;;;8410629;28;20291;-69
2022/12/28 03:15:56;;;;;;;3.53;2.30;;;2.80;99.90;;;;;;8422213;28;20215;-69
2022/12/28 03:33:14;;;;;;;5.43;2.57;;;2.90;42.40;;;;;;8422007;28;20215;-67
2022/12/28 03:37:30;;;;;;;3.43;2.20;;;2.90;29.00;;;;;;8424641;28;20247;-67
2022/12/28 03:41:37;;;;;;;3.33;2.00;;;2.70;36.80;;;;;;8431719;27;20182;-66
2022/12/28 03:45:43;;;;;;;5.27;2.23;;;2.50;87.00;;;;;;8434628;27;20206;-66
2022/12/28 03:49:44;;;;;;;4.13;1.80;;;2.30;99.90;;;;;;8433767;27;20188;-67
2022/12/28 03:53:46;;;;;;;3.80;1.93;;;2.10;99.90;;;;;;8430415;28;20188;-67
2022/12/28 03:57:47;;;;;;;3.23;1.63;;;2.00;99.90;;;;;;8439804;27;20216;-66
2022/12/28 04:01:48;;;;;;;2.93;1.93;;;1.90;99.90;;;;;;8429654;28;20214;-66
2022/12/28 04:05:48;;;;;;;4.23;2.13;;;1.80;99.90;;;;;;8427592;28;20192;-67
2022/12/28 04:09:49;;;;;;;2.93;2.10;;;1.60;99.90;;;;;;8431011;27;20255;-67
2022/12/28 04:13:50;;;;;;;2.60;2.03;;;1.50;1.00;;;;;;8432951;28;20268;-67
2022/12/28 04:17:51;;;;;;;2.30;1.93;;;1.40;1.00;;;;;;8429150;27;20211;-67
2022/12/28 04:21:51;;;;;;;2.27;1.90;;;1.30;1.00;;;;;;8431115;28;20235;-67
2022/12/28 04:26:07;;;;;;;2.93;1.90;;;1.10;1.00;;;;;;8427539;28;20195;-66
2022/12/28 04:30:09;;;;;;;2.60;2.03;;;1.00;16.10;;;;;;8429196;28;20198;-66
2022/12/28 04:34:10;;;;;;;2.80;2.30;;;0.90;99.90;;;;;;8428819;28;20219;-67
2022/12/28 04:38:10;;;;;;;2.70;1.70;;;0.80;99.90;;;;;;8427009;28;20261;-67
2022/12/28 04:42:11;;;;;;;4.70;2.50;;;0.80;99.90;;;;;;8426545;28;20191;-67
2022/12/28 04:46:13;;;;;;;2.60;2.00;;;0.80;1.00;;;;;;8430372;28;20198;-67
2022/12/28 04:50:14;;;;;;;3.53;2.07;;;0.80;1.00;;;;;;8428712;28;20195;-67
2022/12/28 04:54:15;;;;;;;4.03;2.17;;;0.90;20.50;;;;;;8431119;27;20559;-67
2022/12/28 04:58:16;;;;;;;3.73;2.70;;;0.90;99.90;;;;;;8429493;27;20234;-67
2022/12/28 05:02:17;;;;;;;3.13;2.30;;;1.00;1.00;;;;;;8431814;28;20183;-67
2022/12/28 05:06:20;;;;;;;4.17;2.67;;;1.20;99.90;;;;;;8428729;28;20192;-67
2022/12/28 05:10:21;;;;;;;4.60;2.43;;;1.30;99.90;;;;;;8430490;27;20192;-67
2022/12/28 05:14:22;;;;;;;3.23;2.20;;;1.40;1.00;;;;;;8432600;28;20248;-67
2022/12/28 05:18:22;;;;;;;3.30;2.70;;;1.60;99.90;;;;;;8428561;28;20222;-67
2022/12/28 05:22:23;;;;;;;4.27;2.93;;;1.70;99.90;;;;;;8431787;28;20190;-67
2022/12/28 05:26:27;;;;;;;2.73;2.23;;;1.80;18.50;;;;;;8430299;28;20209;-67
2022/12/28 05:30:28;;;;;;;2.40;1.90;;;1.80;1.00;;;;;;8434243;27;20211;-67
2022/12/28 05:34:29;;;;;;;3.30;2.17;;;1.80;1.00;;;;;;8427419;28;20222;-67
2022/12/28 05:38:29;;;;;;;2.40;1.93;;;1.80;1.00;;;;;;8427553;28;20220;-67
2022/12/28 05:42:31;;;;;;;3.00;2.10;;;1.70;1.00;;;;;;8439346;27;20241;-66
2022/12/28 05:46:33;;;;;;;3.17;2.17;;;1.70;1.00;;;;;;8427575;28;20360;-67
2022/12/28 05:50:34;;;;;;;3.93;2.23;;;1.60;1.00;;;;;;8416261;28;20207;-67
2022/12/28 05:54:35;;;;;;;3.20;2.40;;;1.60;1.00;;;;;;8426700;28;20304;-67
2022/12/28 05:58:36;;;;;;;3.13;2.17;;;1.70;1.00;;;;;;8427380;27;20220;-68
2022/12/28 06:02:37;;;;;;;3.83;1.90;;;1.70;99.90;;;;;;8420095;28;20260;-67
2022/12/28 06:06:37;;;;;;;5.40;2.37;;;1.70;99.90;;;;;;8418972;27;20261;-68
2022/12/28 06:10:38;;;;;;;4.27;2.30;;;1.80;99.90;;;;;;8432073;28;20312;-68
2022/12/28 06:14:39;;;;;;;3.13;2.00;;;1.80;99.90;;;;;;8426426;28;20476;-68
2022/12/28 06:18:40;;;;;;;3.27;2.30;;;1.90;99.90;;;;;;8424264;28;20207;-68
2022/12/28 06:22:41;;;;;;;4.33;2.77;;;1.90;99.90;;;;;;8421148;28;20211;-68
2022/12/28 06:26:42;;;;;;;3.37;2.10;;;1.90;99.90;;;;;;8425664;28;20251;-67
2022/12/28 06:30:43;;;;;;;3.40;2.40;;;1.90;99.90;;;;;;8428355;28;20191;-67
2022/12/28 06:34:44;;;;;;;4.03;2.30;;;1.90;99.90;;;;;;8422721;28;20245;-67
2022/12/28 06:38:45;;;;;;;3.60;2.70;;;1.90;99.90;;;;;;8419686;28;20212;-67
2022/12/28 06:42:46;;;;;;;5.53;2.50;;;1.90;99.90;;;;;;8424403;28;20181;-67
2022/12/28 06:46:47;;;;;;;3.03;2.10;;;2.00;99.90;;;;;;8423922;28;20259;-67
2022/12/28 06:50:58;;;;;;;4.83;2.70;;;2.00;99.90;;;;;;8424120;28;20207;-67
2022/12/28 06:54:59;;;;;;;5.05;2.15;;;2.00;99.90;;;;;;8430415;28;20286;-67
2022/12/28 06:59:01;;;;;;;3.30;2.00;;;2.00;99.90;;;;;;8430412;28;20176;-66
2022/12/28 07:03:02;;;;;;;4.40;2.23;;;2.10;99.90;;;;;;8424215;28;20250;-66
2022/12/28 07:07:02;;;;;;;4.20;2.17;;;2.10;99.90;;;;;;8422780;28;20196;-66
2022/12/28 07:11:12;;;;;;;2.90;2.10;;;2.30;99.90;;;;;;8426267;28;20244;-67
2022/12/28 07:15:12;;;;;;;4.43;2.00;;;2.40;99.90;;;;;;8421464;28;20184;-67
2022/12/28 07:19:13;;;;;;;4.63;2.10;;;2.50;99.90;;;;;;8429554;28;20616;-67
2022/12/28 07:23:14;;;;;;;5.83;2.27;;;2.60;99.90;;;;;;8427191;28;20600;-66
2022/12/28 07:27:15;;;;;;;3.67;2.20;;;2.80;88.80;;;;;;8429887;27;20187;-66
2022/12/28 07:31:18;;;;;;;3.63;2.00;;;3.00;17.30;;;;;;8426579;28;20188;-69
2022/12/28 07:35:19;;;;;;;3.30;1.93;;;3.20;1.00;;;;;;8425565;28;20211;-69
2022/12/28 07:39:19;;;;;;;3.20;1.53;;;3.40;1.00;;;;;;8429489;28;20194;-67
2022/12/28 07:43:20;;;;;;;3.60;1.53;;;3.50;1.00;;;;;;8422380;28;20262;-67
2022/12/28 07:47:21;;;;;;;3.20;1.80;;;3.70;1.00;;;;;;8442398;27;20202;-67
2022/12/28 07:51:28;;;;;;;1.67;1.30;;;3.90;1.00;;;;;;8431078;28;20381;-68
2022/12/28 07:55:30;;;;;;;3.13;1.70;;;4.10;99.90;;;;;;8430540;28;20215;-68
2022/12/28 07:59:31;;;;;;;3.67;1.80;;;4.30;99.90;;;;;;8427640;28;20471;-69
2022/12/28 08:03:32;;;;;;;3.27;2.10;;;4.40;99.90;;;;;;8428127;28;20298;-68
2022/12/28 08:07:33;;;;;;;6.17;3.87;;;4.50;99.90;;;;;;8424231;28;20191;-67
2022/12/28 08:11:36;;;;;;;7.60;3.83;;;4.40;99.90;;;;;;8426395;28;20271;-68
2022/12/28 08:15:37;;;;;;;5.90;2.70;;;4.50;99.90;;;;;;8428140;27;20250;-68
2022/12/28 08:19:38;;;;;;;9.33;4.57;;;4.40;99.90;;;;;;8434037;27;20188;-69
2022/12/28 08:23:39;;;;;;;4.53;2.07;;;4.40;99.90;;;;;;8428907;28;20271;-70
2022/12/28 08:27:40;;;;;;;4.37;3.07;;;4.30;99.90;;;;;;8425907;28;20192;-69
2022/12/28 08:31:42;;;;;;;2.50;1.60;;;4.20;99.90;;;;;;8429148;27;20187;-70
2022/12/28 08:35:43;;;;;;;3.07;1.87;;;4.20;99.90;;;;;;8424955;28;20220;-69
2022/12/28 08:39:43;;;;;;;37.60;19.10;;;4.20;99.90;;;;;;8427195;27;20243;-69
2022/12/28 08:43:45;;;;;;;7.97;2.97;;;4.30;99.90;;;;;;8428287;28;20191;-70
2022/12/28 08:47:45;;;;;;;8.40;5.87;;;4.40;99.90;;;;;;8425328;28;20202;-70
2022/12/28 08:51:46;;;;;;;4.00;3.67;;;4.60;99.90;;;;;;8432233;28;20196;-69
2022/12/28 08:55:47;;;;;;;21.27;11.87;;;4.70;99.90;;;;;;8363489;28;20232;-68
2022/12/28 08:59:48;;;;;;;4.60;2.90;;;4.90;99.90;;;;;;8359762;28;20190;-69
2022/12/28 09:03:51;;;;;;;4.60;2.60;;;5.00;99.90;;;;;;8356317;28;20239;-69
2022/12/28 09:07:52;;;;;;;6.57;2.20;;;5.20;99.90;;;;;;8368177;28;20296;-71
2022/12/28 09:11:53;;;;;;;4.73;2.63;;;5.50;99.90;;;;;;8360763;28;20194;-69
2022/12/28 09:16:03;;;;;;;3.57;3.00;;;5.80;99.90;;;;;;8361706;28;20237;-70
2022/12/28 09:20:05;;;;;;;3.27;1.90;;;6.30;99.90;;;;;;8363810;28;20205;-70
2022/12/28 09:24:06;;;;;;;4.90;4.00;;;6.70;99.90;;;;;;8360870;28;20190;-70
2022/12/28 09:28:07;;;;;;;4.43;2.67;;;6.90;99.90;;;;;;8358815;28;20192;-70
2022/12/28 09:32:08;;;;;;;3.03;1.90;;;6.90;99.90;;;;;;8320644;28;20345;-69
2022/12/28 09:36:09;;;;;;;1.90;1.03;;;6.90;99.90;;;;;;8321740;28;20212;-71
2022/12/28 09:40:11;;;;;;;2.37;1.20;;;7.10;99.90;;;;;;8315598;28;20286;-70
2022/12/28 09:44:11;;;;;;;2.17;1.10;;;7.30;99.90;;;;;;8322549;28;20174;-68
2022/12/28 09:48:16;;;;;;;4.57;1.60;;;7.40;90.00;;;;;;8328410;28;20189;-68
2022/12/28 09:52:26;;;;;;;2.90;1.50;;;7.50;75.00;;;;;;8317510;28;20186;-70
2022/12/28 09:56:36;;;;;;;2.90;1.37;;;7.60;63.60;;;;;;8325205;28;20531;-69
2022/12/28 10:00:40;;;;;;;3.37;1.30;;;7.60;61.30;;;;;;8318841;28;20189;-70
2022/12/28 10:04:41;;;;;;;4.83;1.13;;;7.70;53.20;;;;;;8314069;28;21596;-69
2022/12/28 10:08:47;;;;;;;3.17;1.40;;;7.80;79.20;;;;;;8319577;28;20670;-71
2022/12/28 10:12:49;;;;;;;2.20;1.50;;;7.90;52.40;;;;;;8319428;28;20587;-71
2022/12/28 10:16:50;;;;;;;3.80;1.43;;;8.00;50.50;;;;;;8316194;28;20197;-69
2022/12/28 10:20:52;;;;;;;3.40;1.30;;;8.20;47.70;;;;;;8321305;28;20220;-69
2022/12/28 10:24:53;;;;;;;1.97;1.20;;;8.40;41.70;;;;;;8323195;28;20183;-72
2022/12/28 10:28:59;;;;;;;3.20;1.23;;;8.50;39.80;;;;;;8323347;28;20244;-68
2022/12/28 10:33:00;;;;;;;2.50;1.30;;;8.50;37.60;;;;;;8323666;28;20202;-70
2022/12/28 10:37:20;;;;;;;3.33;1.40;;;8.60;35.50;;;;;;8326290;28;20264;-71
2022/12/28 10:41:32;;;;;;;11.07;6.47;;;8.70;33.10;;;;;;8322881;28;20186;-69
2022/12/28 10:45:51;;;;;;;3.40;1.80;;;8.70;32.30;;;;;;8324846;28;20194;-69
2022/12/28 10:49:52;;;;;;;2.47;1.33;;;8.80;38.50;;;;;;8339017;28;20199;-69
2022/12/28 10:53:55;;;;;;;2.23;1.77;;;8.80;37.20;;;;;;8323762;28;20197;-69
2022/12/28 10:58:15;;;;;;;2.53;1.40;;;8.90;36.30;;;;;;8328308;28;20239;-71
2022/12/28 11:02:25;;;;;;;2.40;1.40;;;9.10;34.90;;;;;;8318918;28;20182;-69
2022/12/28 11:06:35;;;;;;;2.93;1.27;;;9.10;34.30;;;;;;8315689;28;20199;-70
2022/12/28 11:10:36;;;;;;;3.73;1.77;;;9.20;26.20;;;;;;8338032;28;20202;-68
2022/12/28 11:14:37;;;;;;;3.20;1.47;;;9.30;23.10;;;;;;8327114;28;20196;-70
2022/12/28 11:18:39;;;;;;;2.20;1.20;;;9.20;25.30;;;;;;8327281;28;20238;-69
2022/12/28 11:22:40;;;;;;;2.67;1.40;;;9.30;28.00;;;;;;8325608;28;20191;-70
2022/12/28 11:26:49;;;;;;;2.67;1.20;;;9.40;31.90;;;;;;8325092;28;20295;-70
2022/12/28 11:30:51;;;;;;;1.60;1.20;;;9.50;32.10;;;;;;8314620;28;20192;-70
2022/12/28 11:34:55;;;;;;;2.93;1.30;;;9.60;27.40;;;;;;8320094;28;20224;-72
2022/12/28 11:38:56;;;;;;;5.47;1.80;;;9.50;26.30;;;;;;8324697;28;20210;-69
2022/12/28 11:42:57;;;;;;;1.90;1.27;;;9.40;24.80;;;;;;8320736;28;20193;-70
2022/12/28 11:47:21;;;;;;;3.50;2.63;;;9.40;24.90;;;;;;8321616;28;20198;-71
2022/12/28 11:51:22;;;;;;;1.67;1.20;;;9.40;26.60;;;;;;8318277;28;20190;-71
2022/12/28 11:55:23;;;;;;;3.07;1.40;;;9.50;27.30;;;;;;8325792;28;20192;-68
2022/12/28 11:59:33;;;;;;;3.20;1.30;;;9.50;25.30;;;;;;8322765;28;20186;-69
2022/12/28 12:03:56;;;;;;;1.53;1.20;;;9.50;23.90;;;;;;8334038;28;20201;-70
2022/12/28 12:07:57;;;;;;;2.90;1.03;;;9.40;22.40;;;;;;8331589;28;20268;-71
2022/12/28 12:11:59;;;;;;;2.37;1.13;;;9.40;26.00;;;;;;8342296;28;20209;-70
2022/12/28 12:16:05;;;;;;;2.43;1.23;;;9.30;27.60;;;;;;8322999;28;20203;-68
2022/12/28 12:20:36;;;;;;;3.27;1.30;;;9.20;28.60;;;;;;8318702;28;20521;-69
2022/12/28 12:24:46;;;;;;;3.40;1.40;;;9.10;29.20;;;;;;8315153;28;20214;-70
2022/12/28 12:28:54;;;;;;;2.43;1.20;;;9.00;32.70;;;;;;8318517;28;20231;-70
2022/12/28 12:32:56;;;;;;;1.43;1.03;;;8.90;33.40;;;;;;8326078;28;20200;-70
2022/12/28 12:37:34;;;;;;;2.87;1.57;;;8.80;39.60;;;;;;8323938;28;20220;-71
2022/12/28 12:41:48;;;;;;;2.17;1.40;;;8.70;49.20;;;;;;8322256;28;20198;-69
2022/12/28 12:46:07;;;;;;;2.87;1.40;;;8.70;53.40;;;;;;8332402;28;20329;-69
2022/12/28 12:50:41;;;;;;;2.90;1.90;;;8.70;55.80;;;;;;8325120;28;20186;-69
2022/12/28 12:55:14;;;;;;;1.90;1.53;;;8.70;74.10;;;;;;8318511;28;20290;-68
2022/12/28 12:59:30;;;;;;;2.00;1.50;;;8.60;58.80;;;;;;8337741;28;20427;-72
2022/12/28 13:03:40;;;;;;;6.57;2.80;;;8.50;66.60;;;;;;8325181;28;20238;-70
2022/12/28 13:07:41;;;;;;;10.07;4.00;;;8.50;74.10;;;;;;8323668;28;20190;-70
2022/12/28 13:11:42;;;;;;;3.97;3.03;;;8.50;77.80;;;;;;8321886;28;20226;-72
2022/12/28 13:15:43;;;;;;;2.83;1.93;;;8.50;78.40;;;;;;8323464;28;20313;-69
2022/12/28 13:19:44;;;;;;;3.07;2.20;;;8.50;84.80;;;;;;8325308;28;20186;-71
2022/12/28 13:23:45;;;;;;;6.40;3.47;;;8.60;81.60;;;;;;8327718;28;20397;-68
2022/12/28 13:27:47;;;;;;;7.73;4.57;;;8.60;77.90;;;;;;8325598;28;20622;-72
2022/12/28 13:31:48;;;;;;;2.97;1.80;;;8.60;84.90;;;;;;8319709;28;20193;-70
2022/12/28 13:35:49;;;;;;;2.60;1.90;;;8.60;87.70;;;;;;8323259;28;20293;-71
2022/12/28 13:40:06;;;;;;;2.93;1.87;;;8.70;92.10;;;;;;8321854;28;20206;-70
2022/12/28 13:44:16;;;;;;;3.17;1.80;;;8.70;91.70;;;;;;8322976;28;20182;-72
2022/12/28 13:48:18;;;;;;;2.83;1.60;;;8.60;91.70;;;;;;8337463;28;20194;-70
2022/12/28 13:52:42;;;;;;;6.60;2.30;;;8.60;91.30;;;;;;8321660;28;20191;-71
2022/12/28 13:56:44;;;;;;;3.63;2.20;;;8.50;94.90;;;;;;8322844;28;20328;-72
2022/12/28 14:00:46;;;;;;;4.27;2.53;;;8.50;97.70;;;;;;8318444;28;20217;-72
2022/12/28 14:04:49;;;;;;;2.70;2.07;;;8.50;99.90;;;;;;8320410;28;20191;-71
2022/12/28 14:08:51;;;;;;;4.23;2.13;;;8.40;99.90;;;;;;8325278;28;20179;-72
2022/12/28 14:12:52;;;;;;;3.57;2.03;;;8.40;99.90;;;;;;8330260;28;20183;-71
2022/12/28 14:16:54;;;;;;;3.70;2.23;;;8.40;99.90;;;;;;8323504;28;20622;-71
2022/12/28 14:20:57;;;;;;;4.30;2.23;;;8.20;99.90;;;;;;8330389;28;20186;-69
2022/12/28 14:25:05;;;;;;;3.20;1.80;;;8.20;99.90;;;;;;8325460;28;20200;-69
2022/12/28 14:29:41;;;;;;;3.43;2.07;;;8.10;99.90;;;;;;8322704;28;20229;-70
2022/12/28 14:34:00;;;;;;;3.03;1.83;;;8.10;99.90;;;;;;8326177;28;20403;-71
2022/12/28 14:38:01;;;;;;;3.40;1.90;;;8.00;99.90;;;;;;8324263;28;20203;-71
2022/12/28 14:42:04;;;;;;;4.30;2.07;;;7.90;99.90;;;;;;8325870;28;20195;-69
2022/12/28 14:46:35;;;;;;;3.30;2.00;;;7.90;99.90;;;;;;8326229;28;20245;-72
2022/12/28 14:50:36;;;;;;;4.37;2.37;;;7.90;99.90;;;;;;8325105;28;20557;-68
2022/12/28 14:54:46;;;;;;;3.60;2.20;;;7.80;99.90;;;;;;8324860;28;20187;-67
2022/12/28 14:59:09;;;;;;;3.30;2.10;;;7.90;99.90;;;;;;8329170;28;20205;-72
2022/12/28 15:03:17;;;;;;;4.40;2.20;;;7.80;99.90;;;;;;8326546;28;20264;-68
2022/12/28 15:07:18;;;;;;;2.73;2.07;;;7.80;99.90;;;;;;8323904;28;20225;-69
2022/12/28 15:11:21;;;;;;;2.97;2.10;;;7.80;99.90;;;;;;8323494;28;20284;-71
2022/12/28 15:15:22;;;;;;;3.40;2.13;;;7.70;99.90;;;;;;8329611;28;20194;-71
2022/12/28 15:19:23;;;;;;;4.57;2.63;;;7.70;99.90;;;;;;8325549;28;20209;-72
2022/12/28 15:23:24;;;;;;;2.10;1.70;;;7.70;99.90;;;;;;8322338;28;20192;-68
2022/12/28 15:27:25;;;;;;;2.23;1.93;;;7.70;99.90;;;;;;8326736;28;20275;-67
2022/12/28 15:31:25;;;;;;;3.83;2.53;;;7.70;99.90;;;;;;8325415;28;20195;-67
2022/12/28 15:35:27;;;;;;;11.27;5.07;;;7.70;99.90;;;;;;8321693;28;20305;-68
2022/12/28 15:39:28;;;;;;;6.47;3.33;;;7.70;99.90;;;;;;8324951;28;20340;-68
2022/12/28 15:43:29;;;;;;;6.40;2.97;;;7.60;99.90;;;;;;8331895;28;20217;-68
2022/12/28 15:47:30;;;;;;;12.10;5.33;;;7.60;99.90;;;;;;8331048;28;20197;-69
2022/12/28 15:51:31;;;;;;;7.60;4.40;;;7.60;99.90;;;;;;8327412;28;20260;-68
2022/12/28 15:55:32;;;;;;;5.40;3.33;;;7.60;99.90;;;;;;8325899;28;20201;-67
2022/12/28 15:59:33;;;;;;;5.27;3.73;;;7.60;99.90;;;;;;8326653;28;20182;-68
2022/12/28 16:03:34;;;;;;;8.10;4.80;;;7.50;99.90;;;;;;8340142;28;20269;-68
2022/12/28 16:07:35;;;;;;;5.20;2.57;;;7.50;99.90;;;;;;8326765;28;20301;-68
2022/12/28 16:11:36;;;;;;;4.20;2.70;;;7.40;99.90;;;;;;8331313;28;20631;-67
2022/12/28 16:15:36;;;;;;;4.30;2.57;;;7.40;99.90;;;;;;8326970;28;20197;-68
2022/12/28 16:19:37;;;;;;;5.00;2.70;;;7.30;99.90;;;;;;8324833;28;20197;-68
2022/12/28 16:23:40;;;;;;;5.97;3.07;;;7.20;99.90;;;;;;8326419;28;20186;-68
2022/12/28 16:27:41;;;;;;;4.67;2.50;;;7.10;99.90;;;;;;8324883;28;20255;-68
2022/12/28 16:31:42;;;;;;;3.20;2.20;;;7.10;99.90;;;;;;8322330;28;20193;-68
2022/12/28 16:35:45;;;;;;;3.97;2.70;;;7.10;99.90;;;;;;8323390;28;20245;-68
2022/12/28 16:39:46;;;;;;;4.70;3.43;;;7.10;99.90;;;;;;8330431;28;20189;-68
2022/12/28 16:43:47;;;;;;;6.13;3.07;;;7.10;99.90;;;;;;8332042;28;20656;-69
2022/12/28 16:47:48;;;;;;;6.57;3.17;;;7.10;99.90;;;;;;8325034;28;20269;-69
2022/12/28 16:51:49;;;;;;;6.07;2.87;;;7.10;99.90;;;;;;8324209;28;20306;-69
2022/12/28 16:55:50;;;;;;;5.43;2.97;;;7.00;99.90;;;;;;8323120;28;20216;-69
2022/12/28 16:59:51;;;;;;;4.30;3.10;;;7.00;99.90;;;;;;8328289;28;20321;-68
2022/12/28 17:03:52;;;;;;;5.07;3.13;;;6.80;99.90;;;;;;8321864;28;20194;-68
2022/12/28 17:07:53;;;;;;;4.27;2.87;;;6.60;99.90;;;;;;8322283;28;20182;-68
2022/12/28 17:11:54;;;;;;;6.43;3.10;;;6.50;99.90;;;;;;8321554;28;20195;-68
2022/12/28 17:15:59;;;;;;;5.73;3.10;;;6.40;99.90;;;;;;8330437;28;20499;-69
2022/12/28 17:20:00;;;;;;;3.63;2.73;;;6.30;99.90;;;;;;8332979;28;20285;-68
2022/12/28 17:24:01;;;;;;;4.93;2.93;;;6.30;99.90;;;;;;8333340;28;20224;-68
2022/12/28 17:28:02;;;;;;;6.00;3.17;;;6.30;99.90;;;;;;8331136;28;20197;-69
2022/12/28 17:32:04;;;;;;;3.73;2.83;;;6.50;99.90;;;;;;8330565;28;20199;-68
2022/12/28 17:36:06;;;;;;;5.77;2.83;;;6.60;99.90;;;;;;8335516;28;20318;-69
2022/12/28 17:40:08;;;;;;;4.87;3.07;;;6.70;99.90;;;;;;8327026;28;20186;-69
2022/12/28 17:44:10;;;;;;;4.40;3.00;;;6.80;99.90;;;;;;8332529;28;20190;-68
2022/12/28 17:48:11;;;;;;;4.37;3.17;;;6.90;99.90;;;;;;8328070;28;20195;-70
2022/12/28 17:52:16;;;;;;;5.53;2.90;;;7.00;99.90;;;;;;8330496;28;20193;-69
2022/12/28 17:56:17;;;;;;;5.70;2.90;;;7.00;99.90;;;;;;8332431;28;20302;-69
2022/12/28 18:00:18;;;;;;;3.87;2.70;;;7.10;99.90;;;;;;8334868;28;20181;-68
2022/12/28 18:04:18;;;;;;;4.23;2.70;;;7.20;99.90;;;;;;8328727;28;20201;-69
2022/12/28 18:08:22;;;;;;;5.73;3.23;;;7.20;99.90;;;;;;8332418;28;20191;-68
2022/12/28 18:12:23;;;;;;;5.73;3.27;;;7.30;99.90;;;;;;8337011;28;20304;-69
2022/12/28 18:16:25;;;;;;;6.20;3.10;;;7.30;99.90;;;;;;8330864;28;20205;-69
2022/12/28 18:20:26;;;;;;;4.63;3.43;;;7.30;99.90;;;;;;8333056;28;20312;-69
2022/12/28 18:24:27;;;;;;;10.10;4.77;;;7.30;99.90;;;;;;8336938;28;20178;-69
2022/12/28 18:28:29;;;;;;;10.67;4.80;;;7.30;99.90;;;;;;8333032;28;20195;-69
2022/12/28 18:32:30;;;;;;;11.00;6.43;;;7.30;99.90;;;;;;8335134;28;20326;-68
2022/12/28 18:36:31;;;;;;;5.40;3.70;;;7.30;99.90;;;;;;8330312;28;20213;-68
2022/12/28 18:40:35;;;;;;;4.73;3.27;;;7.30;99.90;;;;;;8329960;28;20196;-69
2022/12/28 18:44:36;;;;;;;6.37;4.10;;;7.30;99.90;;;;;;8331846;28;20183;-69
2022/12/28 18:48:39;;;;;;;6.93;3.67;;;7.40;99.90;;;;;;8328370;28;20206;-69
2022/12/28 18:52:40;;;;;;;3.97;2.60;;;7.50;99.90;;;;;;8328291;28;20194;-69
2022/12/28 18:56:41;;;;;;;4.20;2.50;;;7.50;99.90;;;;;;8326568;28;20210;-69
2022/12/28 19:00:41;;;;;;;7.13;3.53;;;7.50;99.90;;;;;;8333742;28;20197;-67
2022/12/28 19:04:42;;;;;;;7.57;3.57;;;7.50;99.90;;;;;;8327400;28;20186;-68
2022/12/28 19:08:43;;;;;;;5.27;2.60;;;7.50;99.90;;;;;;8327714;28;20200;-67
2022/12/28 19:12:44;;;;;;;4.40;2.67;;;7.50;99.90;;;;;;8332811;28;20193;-68
2022/12/28 19:16:45;;;;;;;3.73;2.53;;;7.50;99.90;;;;;;8343435;28;20591;-67
2022/12/28 19:20:46;;;;;;;5.20;2.73;;;7.50;99.90;;;;;;8337192;28;20186;-68
2022/12/28 19:24:47;;;;;;;4.10;2.87;;;7.50;99.90;;;;;;8341520;28;20187;-68
2022/12/28 19:28:48;;;;;;;4.00;2.30;;;7.50;99.90;;;;;;8339949;28;20201;-68
2022/12/28 19:32:49;;;;;;;4.57;2.70;;;7.40;99.90;;;;;;8337854;28;20229;-68
2022/12/28 19:36:50;;;;;;;5.67;3.27;;;7.30;99.90;;;;;;8335932;28;20260;-67
2022/12/28 19:40:56;;;;;;;4.60;3.20;;;7.30;99.90;;;;;;8328912;28;20217;-68
2022/12/28 19:44:57;;;;;;;4.73;2.73;;;7.20;99.90;;;;;;8347992;28;20190;-68
2022/12/28 19:48:59;;;;;;;6.50;2.90;;;7.20;99.90;;;;;;8342151;28;20280;-68
2022/12/28 19:53:00;;;;;;;6.57;2.70;;;7.20;99.90;;;;;;8335318;28;20255;-68
2022/12/28 19:57:01;;;;;;;4.10;2.37;;;7.10;99.90;;;;;;8338593;28;20542;-68
2022/12/28 20:01:08;;;;;;;4.90;2.40;;;7.10;99.90;;;;;;8340414;28;20186;-67
2022/12/28 20:05:10;;;;;;;3.67;2.43;;;7.20;99.90;;;;;;8340228;28;20285;-68
2022/12/28 20:09:12;;;;;;;3.73;2.47;;;7.20;99.90;;;;;;8341767;28;20460;-68
2022/12/28 20:13:14;;;;;;;4.10;2.33;;;7.30;99.90;;;;;;8336116;28;20186;-68
2022/12/28 20:17:15;;;;;;;2.80;2.23;;;7.30;99.90;;;;;;8335945;28;20226;-68
2022/12/28 20:21:17;;;;;;;4.10;2.20;;;7.30;99.90;;;;;;8331639;28;20220;-68
2022/12/28 20:25:18;;;;;;;3.33;2.40;;;7.30;99.90;;;;;;8333047;28;20186;-68
2022/12/28 20:29:19;;;;;;;4.60;2.13;;;7.30;99.90;;;;;;8337934;28;20289;-68
2022/12/28 20:33:20;;;;;;;3.80;2.10;;;7.30;99.90;;;;;;8330629;28;20290;-67
2022/12/28 20:37:21;;;;;;;3.17;2.17;;;7.30;99.90;;;;;;8332863;28;20225;-67
2022/12/28 20:45:46;;;;;;;3.67;1.83;;;7.30;99.90;;;;;;8332849;28;20213;-67
2022/12/28 20:49:47;;;;;;;3.70;2.13;;;7.30;99.90;;;;;;8338831;28;20190;-67
2022/12/28 20:53:48;;;;;;;4.73;2.17;;;7.30;99.90;;;;;;8333122;28;20433;-67
2022/12/28 20:57:49;;;;;;;4.47;2.10;;;7.20;99.90;;;;;;8329448;28;20610;-67
2022/12/28 21:01:50;;;;;;;2.47;1.90;;;7.00;99.90;;;;;;8340186;28;20271;-68
2022/12/28 21:05:52;;;;;;;3.77;2.03;;;6.90;99.90;;;;;;8328073;28;20185;-68
2022/12/28 21:09:53;;;;;;;4.07;2.20;;;6.90;99.90;;;;;;8325325;28;20185;-67
2022/12/28 21:13:53;;;;;;;3.13;2.07;;;6.90;99.90;;;;;;8334201;28;20182;-68
2022/12/28 21:17:56;;;;;;;3.40;2.27;;;6.90;99.90;;;;;;8328906;28;20677;-68
2022/12/28 21:21:56;;;;;;;4.30;2.30;;;7.00;99.90;;;;;;8330867;28;20217;-68
2022/12/28 21:26:05;;;;;;;3.90;2.13;;;6.90;99.90;;;;;;8324351;28;20186;-67
2022/12/28 21:30:06;;;;;;;5.50;2.13;;;6.90;99.90;;;;;;8328427;28;20190;-68
2022/12/28 21:34:07;;;;;;;3.60;2.00;;;6.90;99.90;;;;;;8330318;28;20269;-68
2022/12/28 21:38:09;;;;;;;4.63;2.60;;;6.70;99.90;;;;;;8324414;28;20214;-68
2022/12/28 21:42:09;;;;;;;3.43;2.23;;;6.60;99.90;;;;;;8341322;28;20197;-68
2022/12/28 21:46:13;;;;;;;4.97;2.43;;;6.50;99.90;;;;;;8329374;28;20194;-67
2022/12/28 21:50:14;;;;;;;4.00;2.13;;;6.50;99.90;;;;;;8334154;28;20267;-68
2022/12/28 21:54:18;;;;;;;3.70;2.20;;;6.50;99.90;;;;;;8329871;28;20273;-68
2022/12/28 21:58:19;;;;;;;3.57;2.03;;;6.60;99.90;;;;;;8335511;28;20228;-67